Time;durP1;ratioP1;P1;durP2;ratioP2;P2;SDS_P1;SDS_P2;PMS_P1;PMS_P2;Temp;Humidity;BMP_temperature;BMP_pressure;BME280_temperature;BME280_humidity;BME280_pressure;Samples;Min_cycle;Max_cycle;Signal;HPM_P1;HPM_P2
2022/08/05 16:37:33;;;;;;;2.95;1.15;;;;;;;21.25;47.34;102120.09;5852713;23;20059;-83
2022/08/05 16:39:59;;;;;;;2.65;1.20;;;;;;;21.25;46.84;102125.38;4960038;28;20062;-83
2022/08/05 16:42:24;;;;;;;2.35;1.45;;;;;;;21.19;47.89;102125.66;4955823;28;20031;-82
2022/08/05 16:44:49;;;;;;;4.75;1.20;;;;;;;21.05;47.91;102129.84;4972961;28;20061;-83
2022/08/05 16:47:15;;;;;;;2.72;1.30;;;;;;;20.97;47.81;102129.34;4955630;28;20364;-83
2022/08/05 16:49:40;;;;;;;4.07;1.40;;;;;;;20.91;48.51;102133.13;4972844;28;20487;-82
2022/08/05 16:52:06;;;;;;;4.38;1.30;;;;;;;20.87;47.92;102142.09;4962169;28;20446;-82
2022/08/05 16:54:31;;;;;;;2.22;1.20;;;;;;;20.81;49.73;102135.31;4953784;28;20031;-82
2022/08/05 16:56:56;;;;;;;3.23;1.30;;;;;;;20.74;50.56;102144.44;4942253;29;20055;-83
2022/08/05 16:59:22;;;;;;;2.97;1.30;;;;;;;20.62;50.83;102150.25;4934115;29;20791;-83
2022/08/05 17:01:47;;;;;;;2.58;1.25;;;;;;;20.49;49.15;102144.66;4934562;29;20279;-82
2022/08/05 17:04:12;;;;;;;3.07;1.27;;;;;;;20.45;49.53;102152.78;4934702;29;20031;-82
2022/08/05 17:06:38;;;;;;;2.80;1.23;;;;;;;20.39;49.67;102140.75;4934373;29;20357;-83
2022/08/05 17:09:03;;;;;;;2.92;1.17;;;;;;;20.42;49.44;102153.75;4934060;29;20275;-83
2022/08/05 17:11:29;;;;;;;5.35;1.35;;;;;;;20.43;49.81;102149.34;4934376;29;20027;-82
2022/08/05 17:13:55;;;;;;;2.58;1.20;;;;;;;20.42;50.02;102153.75;4934041;29;20363;-83
2022/08/05 17:16:20;;;;;;;3.53;1.55;;;;;;;20.44;51.93;102159.81;4917280;29;20130;-82
2022/08/05 17:18:46;;;;;;;5.13;1.58;;;;;;;20.44;49.88;102162.47;4934064;29;20036;-83
2022/08/05 17:21:11;;;;;;;4.43;1.30;;;;;;;20.45;49.99;102166.81;4933919;29;20023;-84
2022/08/05 17:23:36;;;;;;;2.63;1.20;;;;;;;20.42;49.47;102166.06;4933972;29;20099;-84
2022/08/05 17:26:01;;;;;;;4.60;1.37;;;;;;;20.38;48.73;102182.94;4954494;28;20275;-83
2022/08/05 17:28:27;;;;;;;2.58;1.30;;;;;;;20.27;49.12;102169.34;4953317;29;20278;-83
2022/08/05 17:30:52;;;;;;;2.50;1.40;;;;;;;20.20;50.26;102184.53;4935877;29;20038;-83
2022/08/05 17:33:18;;;;;;;3.38;1.30;;;;;;;20.13;49.97;102191.84;4942259;29;20609;-83
2022/08/05 17:35:46;;;;;;;5.13;1.40;;;;;;;20.09;51.53;102192.91;4933829;29;20019;-83
2022/08/05 17:38:11;;;;;;;3.95;1.50;;;;;;;20.00;49.59;102188.00;4913166;29;20408;-83
2022/08/05 17:40:39;;;;;;;1.63;1.20;;;;;;;19.96;48.78;102191.69;4932871;29;20499;-83
2022/08/05 17:43:04;;;;;;;2.90;1.30;;;;;;;19.95;49.08;102200.50;4924823;29;20087;-83
2022/08/05 17:45:30;;;;;;;3.63;1.27;;;;;;;19.95;50.75;102211.03;4933390;29;20039;-83
2022/08/05 17:47:58;;;;;;;1.80;1.20;;;;;;;19.89;48.82;102194.66;4933500;29;20028;-83
2022/08/05 17:50:25;;;;;;;5.50;1.50;;;;;;;19.83;50.26;102208.06;4933342;29;20027;-84
2022/08/05 17:52:53;;;;;;;3.45;1.30;;;;;;;19.77;48.62;102214.44;4933589;29;20043;-83
2022/08/05 17:55:19;;;;;;;3.10;1.45;;;;;;;19.69;49.00;102227.88;4916178;29;20023;-83
2022/08/05 17:57:44;;;;;;;2.67;1.30;;;;;;;19.59;48.84;102221.25;4916094;29;20035;-83
2022/08/05 18:00:10;;;;;;;3.00;1.40;;;;;;;19.50;49.26;102228.66;4933223;29;20123;-87
2022/08/05 18:02:36;;;;;;;3.75;1.48;;;;;;;19.37;50.09;102228.25;4933482;29;20318;-88
2022/08/05 18:05:03;;;;;;;4.93;1.63;;;;;;;19.27;49.94;102240.03;4933136;29;20035;-88
2022/08/05 18:07:29;;;;;;;3.50;1.75;;;;;;;19.15;52.03;102240.50;4933223;29;20780;-88
2022/08/05 18:09:55;;;;;;;3.75;1.40;;;;;;;19.08;53.18;102242.50;4933053;29;20027;-88
2022/08/05 18:12:20;;;;;;;4.30;1.60;;;;;;;19.01;52.27;102241.00;4933262;29;20034;-88
2022/08/05 18:14:45;;;;;;;1.85;1.35;;;;;;;18.96;52.79;102242.94;4949339;28;20030;-88
2022/08/05 18:17:13;;;;;;;5.03;1.75;;;;;;;18.88;52.18;102256.34;4935145;29;20023;-89
2022/08/05 18:19:41;;;;;;;3.25;1.60;;;;;;;18.80;51.16;102258.38;4952080;29;20468;-88
2022/08/05 18:22:06;;;;;;;4.72;1.50;;;;;;;18.76;51.63;102253.31;4952205;29;20027;-88
2022/08/05 18:24:32;;;;;;;5.40;1.80;;;;;;;18.67;51.61;102270.25;4952042;29;20034;-88
2022/08/05 18:26:57;;;;;;;3.93;1.43;;;;;;;18.63;52.68;102263.34;4934851;29;20097;-88
2022/08/05 18:29:22;;;;;;;4.85;1.50;;;;;;;18.57;51.02;102273.22;4951771;29;20279;-88
2022/08/05 18:31:48;;;;;;;3.10;1.30;;;;;;;18.47;51.44;102265.63;4935127;29;20369;-88
2022/08/05 18:34:13;;;;;;;4.90;1.48;;;;;;;18.42;51.06;102272.78;4934987;29;20282;-88
2022/08/05 18:36:38;;;;;;;3.10;1.30;;;;;;;18.36;52.93;102282.63;4951928;29;20020;-88
2022/08/05 18:39:04;;;;;;;4.75;1.40;;;;;;;18.24;51.88;102272.53;4933944;29;20054;-88
2022/08/05 18:41:30;;;;;;;4.68;1.58;;;;;;;18.22;53.27;102277.84;4951080;29;20605;-88
2022/08/05 18:43:56;;;;;;;2.63;1.40;;;;;;;18.17;53.35;102283.25;4951117;29;20070;-88
2022/08/05 18:46:25;;;;;;;3.75;1.50;;;;;;;18.10;52.02;102289.59;4951028;29;20031;-87
2022/08/05 18:48:51;;;;;;;4.88;1.35;;;;;;;18.04;53.45;102291.56;4950973;29;20027;-88
2022/08/05 18:54:01;;;;;;;4.97;1.42;;;;;;;17.89;52.39;102289.41;4956262;28;20066;-88
2022/08/05 18:56:27;;;;;;;3.78;1.20;;;;;;;17.81;52.39;102288.81;4946720;28;20019;-87
2022/08/05 18:58:52;;;;;;;4.28;1.42;;;;;;;17.76;54.17;102291.56;4948211;29;20058;-88
2022/08/05 19:01:17;;;;;;;4.82;1.55;;;;;;;17.72;54.27;102298.66;4947427;29;20361;-87
2022/08/05 19:03:42;;;;;;;4.27;1.73;;;;;;;17.62;55.09;102299.84;4933647;29;20087;-87
2022/08/05 19:06:08;;;;;;;7.43;1.40;;;;;;;17.55;55.27;102297.41;4949078;29;20373;-87
2022/08/05 19:08:33;;;;;;;4.43;1.43;;;;;;;17.47;55.26;102302.03;4950081;29;20294;-83
2022/08/05 19:10:59;;;;;;;8.77;1.77;;;;;;;17.42;56.25;102307.38;4936457;29;20346;-83
2022/08/05 19:13:27;;;;;;;6.13;1.48;;;;;;;17.35;55.33;102316.34;4937686;28;20317;-83
2022/08/05 19:15:52;;;;;;;2.88;1.30;;;;;;;17.25;56.10;102320.13;4945063;29;20116;-83
2022/08/05 19:18:17;;;;;;;3.27;1.40;;;;;;;17.19;56.72;102315.94;4932205;29;20454;-83
2022/08/05 19:20:47;;;;;;;4.35;1.30;;;;;;;17.13;56.34;102330.91;4933623;29;20558;-83
2022/08/05 19:23:14;;;;;;;7.05;1.40;;;;;;;17.08;57.44;102330.19;4945902;28;20042;-82
2022/08/05 19:25:39;;;;;;;4.65;1.50;;;;;;;17.03;57.85;102334.72;4950304;28;20046;-82
2022/08/05 19:28:07;;;;;;;5.22;1.60;;;;;;;16.96;56.76;102334.00;4944543;29;20036;-82
2022/08/05 19:30:32;;;;;;;4.47;1.60;;;;;;;16.88;57.81;102339.44;4922295;29;20066;-83
2022/08/05 19:32:57;;;;;;;4.33;1.53;;;;;;;16.84;57.29;102345.69;4941948;29;20031;-82
2022/08/05 19:35:25;;;;;;;4.33;1.63;;;;;;;16.77;58.44;102349.34;4942944;29;20318;-83
2022/08/05 21:41:46;;;;;;;6.90;2.40;;;;;;;14.37;70.50;102460.25;6257634;22;1236076;-81
2022/08/05 21:44:12;;;;;;;6.93;2.33;;;;;;;14.29;70.28;102452.50;6276218;22;20106;-81
2022/08/05 21:46:37;;;;;;;6.00;2.20;;;;;;;14.24;70.49;102451.72;6276516;22;20033;-81
2022/08/05 21:49:03;;;;;;;8.07;2.30;;;;;;;14.26;70.51;102454.31;6304211;22;20222;-81
2022/08/05 21:51:28;;;;;;;8.32;2.40;;;;;;;14.23;71.14;102463.03;6277109;22;20305;-81
2022/08/05 21:53:54;;;;;;;5.82;2.40;;;;;;;14.20;71.58;102461.31;6304362;22;20082;-81
2022/08/05 21:56:19;;;;;;;9.52;2.67;;;;;;;14.21;71.76;102470.88;6293305;22;20424;-81
2022/08/05 21:58:44;;;;;;;6.60;2.20;;;;;;;14.17;70.87;102468.31;6244375;22;20025;-81
2022/08/05 22:01:10;;;;;;;4.88;2.20;;;;;;;14.13;71.11;102477.06;6271611;22;19999;-81
2022/08/05 22:03:35;;;;;;;7.50;2.42;;;;;;;14.05;71.07;102471.97;6272434;22;20003;-81
2022/08/05 22:06:00;;;;;;;12.10;2.60;;;;;;;14.01;71.29;102475.47;6273131;22;20154;-81
2022/08/05 22:08:26;;;;;;;9.52;2.53;;;;;;;13.99;71.83;102476.38;6272664;22;19996;-81
2022/08/05 22:10:52;;;;;;;8.57;2.60;;;;;;;13.98;71.68;102483.34;6243667;22;20087;-81
2022/08/05 22:13:17;;;;;;;6.57;2.60;;;;;;;13.94;72.14;102481.63;6271985;22;20234;-81
2022/08/05 22:15:43;;;;;;;13.18;2.88;;;;;;;13.96;72.54;102481.63;6272661;22;20010;-81
2022/08/05 22:18:09;;;;;;;9.00;2.65;;;;;;;13.89;71.94;102488.66;6244538;22;20078;-81
2022/08/05 22:20:34;;;;;;;10.18;2.83;;;;;;;13.84;72.15;102487.84;6245681;22;20439;-81
2022/08/05 22:28:27;;;;;;;8.52;2.83;;;;;;;13.68;72.87;102499.28;6272876;22;20106;-81
2022/08/05 22:30:52;;;;;;;9.18;3.03;;;;;;;13.65;72.82;102497.56;6244061;22;20030;-81
2022/08/05 22:33:18;;;;;;;7.20;2.60;;;;;;;13.60;73.62;102501.97;6272275;22;20014;-81
2022/08/05 22:35:43;;;;;;;7.25;2.70;;;;;;;13.53;73.17;102491.63;6245731;22;20057;-81
2022/08/05 22:38:08;;;;;;;7.65;2.90;;;;;;;13.50;73.56;102489.06;6272728;22;20086;-81
2022/08/05 22:40:34;;;;;;;8.68;2.92;;;;;;;13.45;73.86;102500.38;6272807;22;20053;-81
2022/08/05 22:42:59;;;;;;;9.10;2.90;;;;;;;13.42;74.25;102500.41;6273042;22;20056;-81
2022/08/05 22:45:25;;;;;;;10.32;2.78;;;;;;;13.39;74.78;102508.25;6270679;22;20035;-81
2022/08/05 22:47:51;;;;;;;6.47;2.72;;;;;;;13.32;74.83;102503.09;6244959;22;20027;-81
2022/08/05 22:50:16;;;;;;;8.07;3.15;;;;;;;13.28;74.53;102512.69;6272368;22;20003;-81
2022/08/05 22:52:42;;;;;;;7.40;2.85;;;;;;;13.24;75.37;102510.09;6272458;22;20010;-81
2022/08/05 22:55:08;;;;;;;6.72;3.00;;;;;;;13.21;75.86;102518.81;6272601;22;20000;-81
2022/08/05 22:57:33;;;;;;;8.88;2.95;;;;;;;13.21;76.13;102515.34;6272761;22;20375;-81
2022/08/05 22:59:59;;;;;;;6.40;3.13;;;;;;;13.17;76.60;102513.66;6272504;22;19999;-81
2022/08/05 23:02:24;;;;;;;4.82;2.90;;;;;;;13.17;76.53;102518.88;6270966;22;20234;-81
2022/08/05 23:04:50;;;;;;;7.82;3.17;;;;;;;13.14;76.86;102521.47;6272160;22;20035;-81
2022/08/05 23:07:15;;;;;;;7.22;3.00;;;;;;;13.05;76.94;102512.81;6272798;22;20000;-81
2022/08/05 23:09:41;;;;;;;5.63;3.38;;;;;;;13.03;76.89;102522.38;6272720;22;20326;-81
2022/08/05 23:12:06;;;;;;;5.07;2.90;;;;;;;13.01;77.05;102518.06;6272470;22;20021;-81
2022/08/05 23:14:31;;;;;;;7.93;3.20;;;;;;;12.95;76.88;102524.19;6244910;22;20739;-81
2022/08/05 23:19:41;;;;;;;8.38;3.13;;;;;;;12.90;77.35;102530.28;6272397;22;20065;-81
2022/08/05 23:22:06;;;;;;;4.78;3.00;;;;;;;12.84;77.16;102527.72;6245613;22;19999;-81
2022/08/05 23:24:32;;;;;;;6.22;2.88;;;;;;;12.84;77.78;102530.31;6272535;22;20011;-81
2022/08/05 23:26:57;;;;;;;6.60;3.08;;;;;;;12.82;77.66;102534.69;6272684;22;20011;-81
2022/08/05 23:29:22;;;;;;;6.05;2.88;;;;;;;12.77;78.71;102532.09;6271773;22;20004;-81
2022/08/05 23:31:47;;;;;;;8.23;3.45;;;;;;;12.74;78.45;102532.13;6244683;22;20010;-81
2022/08/05 23:34:13;;;;;;;8.80;3.47;;;;;;;12.70;78.57;102538.19;6273061;22;20004;-81
2022/08/05 23:36:38;;;;;;;8.53;3.33;;;;;;;12.67;78.65;102535.63;6272428;22;20042;-81
2022/08/05 23:39:03;;;;;;;8.25;3.22;;;;;;;12.62;78.03;102542.59;6272424;22;20254;-86
2022/08/05 23:41:29;;;;;;;7.32;3.40;;;;;;;12.60;78.98;102542.59;6245139;22;20015;-86
2022/08/05 23:43:54;;;;;;;9.53;4.30;;;;;;;12.58;79.29;102549.53;6272147;22;20432;-86
2022/08/05 23:46:19;;;;;;;6.03;3.47;;;;;;;12.53;79.41;102546.09;6271298;22;20219;-86
2022/08/05 23:48:45;;;;;;;9.73;3.65;;;;;;;12.51;79.67;102550.44;6245390;22;20011;-86
2022/08/05 23:51:10;;;;;;;7.40;3.10;;;;;;;12.50;80.03;102550.44;6272101;22;19999;-86
2022/08/05 23:53:35;;;;;;;7.85;3.47;;;;;;;12.45;80.07;102557.41;6272234;22;20230;-86
2022/08/05 23:56:00;;;;;;;8.57;3.55;;;;;;;12.38;80.05;102556.56;6272682;22;20000;-86
2022/08/05 23:58:26;;;;;;;8.02;3.83;;;;;;;12.38;80.44;102556.56;6272323;22;20011;-86
